Forside
METAR-TAF:

METAR-TAF

Lufthavne :

Cambridge Municipal Airport

Cambridge, Minnesota, USA

Breddekreds: 45-34N, længdekreds: 093-16W, højde: 287 m

Aktuelle vejr

Denne rapport blev lavet for 38 minutter siden, kl. 11:55 UTC
Vind 4 kt fra sydøst
Temperatur 18°C
Fugtighed 68%
Tryk 1016 hPa
Sigt: 16.1 km
skyfri

METAR: KCBG 121155Z AUTO 14004KT 10SM CLR 18/12 A3001 RMK AO2

Tid: 07:33 (12:33 UTC)


TAF: fraværende

Vejrobservationer og prognoser fra mere end 4000 lufthavne (METAR og TAF).

De gule og røde prikker repræsenterer de meteorologiske stationer.

Flyt musen over at se navnet på stationen.

Så klik over at se vejr observationer og prognoser.

At skifte det kort: Klik på de grønne knapper med et sort kors for at zoome ind; på den grønne knap med en bindestreg for at zoome ud; eller på de grønne pile for tilstødende kort.


METAR-TAF: